createdAt,value
2022-08-05T00:01:27.849Z,36.55
2022-08-05T00:03:56.889Z,36.48
2022-08-05T00:06:30.698Z,36.53
2022-08-05T00:09:00.580Z,36.36
2022-08-05T00:11:34.515Z,36.45
2022-08-05T00:14:12.096Z,36.42
2022-08-05T00:16:53.123Z,36.33
2022-08-05T00:19:24.792Z,36.29
2022-08-05T00:21:59.784Z,36.60
2022-08-05T00:24:30.989Z,36.77
2022-08-05T00:26:58.864Z,36.87
2022-08-05T00:29:26.078Z,36.87
2022-08-05T00:32:12.702Z,36.51
2022-08-05T00:35:05.676Z,36.67
2022-08-05T00:37:50.617Z,36.91
2022-08-05T00:40:28.120Z,36.69
2022-08-05T00:42:59.348Z,36.71
2022-08-05T00:45:37.987Z,36.54
2022-08-05T00:48:07.321Z,36.90
2022-08-05T00:50:34.367Z,36.56
2022-08-05T00:53:02.581Z,36.81
2022-08-05T00:55:42.313Z,36.96
2022-08-05T00:58:12.920Z,37.03
2022-08-05T01:00:40.332Z,36.65
2022-08-05T01:03:08.986Z,36.67
2022-08-05T01:05:35.749Z,36.88
2022-08-05T01:08:41.247Z,37.14
2022-08-05T01:10:54.822Z,36.94
2022-08-05T01:13:27.368Z,36.62
2022-08-05T01:16:13.292Z,36.96
2022-08-05T01:18:53.769Z,36.93
2022-08-05T01:21:38.224Z,36.66
2022-08-05T01:24:13.170Z,36.95
2022-08-05T01:26:59.995Z,36.71
2022-08-05T01:29:35.074Z,36.96
2022-08-05T01:32:02.827Z,36.95
2022-08-05T01:34:32.311Z,36.92
2022-08-05T01:37:04.329Z,36.74
2022-08-05T01:39:46.303Z,37.19
2022-08-05T01:42:15.321Z,36.94
2022-08-05T01:44:42.346Z,36.87
2022-08-05T01:47:12.387Z,37.20
2022-08-05T01:50:01.312Z,37.20
2022-08-05T01:52:26.674Z,36.95
2022-08-05T01:54:54.498Z,37.09
2022-08-05T01:58:10.630Z,36.83
2022-08-05T02:00:12.486Z,37.41
2022-08-05T02:02:46.549Z,37.00
2022-08-05T02:05:23.574Z,36.93
2022-08-05T02:08:00.006Z,36.95
2022-08-05T02:10:28.933Z,37.48
2022-08-05T02:13:04.817Z,36.96
2022-08-05T02:15:54.400Z,36.92
2022-08-05T02:18:32.146Z,37.13
2022-08-05T02:21:15.576Z,37.32
2022-08-05T02:23:42.852Z,37.47
2022-08-05T02:26:10.397Z,36.98
2022-08-05T02:28:41.769Z,37.38
2022-08-05T02:31:20.184Z,37.26
2022-08-05T02:33:57.521Z,37.39
2022-08-05T02:36:27.495Z,37.37
2022-08-05T02:38:58.189Z,37.36
2022-08-05T02:41:28.725Z,37.19
2022-08-05T02:44:06.897Z,37.48
2022-08-05T02:46:53.168Z,37.15
2022-08-05T02:49:35.833Z,37.32
2022-08-05T02:52:04.899Z,37.53
2022-08-05T02:54:35.025Z,37.04
2022-08-05T02:57:09.845Z,37.12
2022-08-05T02:59:47.873Z,37.53
2022-08-05T03:02:19.491Z,37.76
2022-08-05T03:04:47.564Z,37.32
2022-08-05T03:07:40.593Z,37.54
2022-08-05T03:10:07.473Z,37.21
2022-08-05T03:12:37.867Z,37.57
2022-08-05T03:15:06.745Z,37.26
2022-08-05T03:17:34.524Z,37.73
2022-08-05T03:20:09.003Z,37.77
2022-08-05T03:22:37.191Z,37.47
2022-08-05T03:25:11.773Z,37.79
2022-08-05T03:27:59.819Z,37.22
2022-08-05T03:30:28.697Z,37.33
2022-08-05T03:33:04.304Z,37.43
2022-08-05T03:35:40.995Z,37.46
2022-08-05T03:38:10.685Z,37.69
2022-08-05T03:40:40.143Z,37.93
2022-08-05T03:43:59.181Z,37.43
2022-08-05T03:45:58.192Z,37.44
2022-08-05T03:48:26.750Z,37.88
2022-08-05T03:50:59.165Z,37.49
2022-08-05T03:55:52.465Z,37.84
2022-08-05T03:56:42.221Z,38.09
2022-08-05T03:59:13.944Z,37.82
2022-08-05T04:01:48.411Z,38.01
2022-08-05T04:04:21.043Z,38.06
2022-08-05T04:06:51.372Z,38.02
2022-08-05T04:09:20.444Z,37.58
2022-08-05T04:11:53.166Z,37.89
2022-08-05T04:14:29.950Z,38.12
2022-08-05T04:16:58.277Z,37.67
2022-08-05T04:19:25.876Z,38.05
2022-08-05T04:22:10.285Z,37.91
2022-08-05T04:24:44.150Z,38.05
2022-08-05T04:27:13.795Z,38.14
2022-08-05T04:29:42.334Z,38.60
2022-08-05T04:32:09.148Z,38.62
2022-08-05T04:34:37.563Z,38.78
2022-08-05T04:37:10.219Z,39.05
2022-08-05T04:39:37.667Z,39.19
2022-08-05T04:42:06.233Z,38.96
2022-08-05T04:44:33.527Z,39.10
2022-08-05T04:47:08.824Z,39.00
2022-08-05T04:50:02.830Z,38.60
2022-08-05T04:52:27.427Z,38.10
2022-08-05T04:54:57.092Z,38.08
2022-08-05T04:57:29.109Z,38.25
2022-08-05T04:59:58.500Z,37.78
2022-08-05T05:02:36.520Z,38.18
2022-08-05T05:05:26.399Z,38.05
2022-08-05T05:07:56.212Z,37.63
2022-08-05T05:10:29.548Z,37.66
2022-08-05T05:12:56.659Z,38.11
2022-08-05T05:15:57.319Z,37.68
2022-08-05T05:18:15.383Z,37.85
2022-08-05T05:20:55.599Z,37.68
2022-08-05T05:23:25.502Z,37.27
2022-08-05T05:25:52.276Z,37.47
2022-08-05T05:28:19.593Z,37.37
2022-08-05T05:30:49.802Z,37.14
2022-08-05T05:33:17.340Z,37.53
2022-08-05T05:35:45.189Z,37.15
2022-08-05T05:38:13.172Z,36.90
2022-08-05T05:40:48.383Z,37.18
2022-08-05T05:43:54.613Z,37.21
2022-08-05T05:46:15.793Z,37.13
2022-08-05T05:48:44.678Z,36.82
2022-08-05T05:51:17.929Z,36.88
2022-08-05T05:53:54.641Z,37.26
2022-08-05T05:56:32.325Z,36.66
2022-08-05T05:59:05.661Z,37.23
2022-08-05T06:01:37.552Z,36.75
2022-08-05T06:04:11.709Z,36.61
2022-08-05T06:06:43.322Z,36.84
2022-08-05T06:09:24.645Z,37.07
2022-08-05T06:12:01.354Z,36.92
2022-08-05T06:14:29.834Z,36.62
2022-08-05T06:16:56.869Z,36.87
2022-08-05T06:19:34.967Z,36.60
2022-08-05T06:22:06.365Z,36.48
2022-08-05T06:24:33.830Z,36.86
2022-08-05T06:27:01.775Z,36.62
2022-08-05T06:29:48.955Z,36.81
2022-08-05T06:32:24.851Z,37.05
2022-08-05T06:34:56.627Z,36.33
2022-08-05T06:37:56.635Z,36.62
2022-08-05T06:40:12.032Z,36.43
2022-08-05T06:42:39.822Z,36.73
2022-08-05T06:45:08.807Z,36.28
2022-08-05T06:48:36.926Z,36.34
2022-08-05T06:50:23.720Z,36.50
2022-08-05T06:52:58.701Z,36.53
2022-08-05T06:55:36.165Z,36.28
2022-08-05T06:58:20.274Z,36.09
2022-08-05T07:00:50.751Z,36.12
2022-08-05T07:03:17.822Z,36.25
2022-08-05T07:05:46.317Z,35.59
2022-08-05T07:08:13.344Z,35.95
2022-08-05T07:10:53.124Z,35.77
2022-08-05T07:13:57.510Z,35.86
2022-08-05T07:18:00.458Z,35.82
2022-08-05T07:20:23.167Z,35.38
2022-08-05T07:22:28.992Z,35.53
2022-08-05T07:25:23.720Z,35.25
2022-08-05T07:27:57.195Z,34.96
2022-08-05T07:30:34.016Z,35.17
2022-08-05T07:33:08.953Z,35.09
2022-08-05T07:36:03.869Z,34.89
2022-08-05T07:38:26.253Z,34.92
2022-08-05T07:41:17.163Z,34.72
2022-08-05T07:43:50.106Z,34.68
2022-08-05T07:46:24.512Z,34.71
2022-08-05T07:49:02.945Z,34.60
2022-08-05T07:51:40.201Z,34.75
2022-08-05T07:54:09.691Z,34.47
2022-08-05T07:56:38.947Z,34.71
2022-08-05T07:59:38.189Z,34.47
2022-08-05T08:02:16.849Z,34.65
2022-08-05T08:04:47.994Z,34.36
2022-08-05T08:07:15.777Z,34.33
2022-08-05T08:09:43.314Z,34.29
2022-08-05T08:12:27.513Z,34.19
2022-08-05T08:14:57.230Z,33.91
2022-08-05T08:17:30.363Z,34.18
2022-08-05T08:20:22.335Z,34.05
2022-08-05T08:22:44.452Z,34.04
2022-08-05T08:25:16.087Z,33.72
2022-08-05T08:27:45.114Z,33.90
2022-08-05T08:30:29.903Z,33.85
2022-08-05T08:33:04.528Z,33.64
2022-08-05T08:35:41.348Z,33.44
2022-08-05T08:38:16.271Z,33.47
2022-08-05T08:40:45.707Z,33.29
2022-08-05T08:45:16.140Z,33.00
2022-08-05T08:46:06.183Z,32.98
2022-08-05T08:48:41.581Z,33.03
2022-08-05T08:52:03.433Z,33.40
2022-08-05T08:54:11.150Z,33.03
2022-08-05T08:56:47.907Z,32.93
2022-08-05T08:59:19.740Z,32.80
2022-08-05T09:01:57.575Z,33.03
2022-08-05T09:04:30.281Z,32.92
2022-08-05T09:06:58.527Z,33.13
2022-08-05T09:09:26.073Z,33.15
2022-08-05T09:12:19.868Z,33.08
2022-08-05T09:14:56.508Z,33.20
2022-08-05T09:17:42.860Z,32.98
2022-08-05T09:20:21.059Z,32.81
2022-08-05T09:23:07.803Z,33.24
2022-08-05T09:26:02.659Z,33.15
2022-08-05T09:28:24.533Z,33.19
2022-08-05T09:31:18.178Z,32.81
2022-08-05T09:33:58.609Z,32.71
2022-08-05T09:36:38.259Z,32.92
2022-08-05T09:39:18.285Z,32.12
2022-08-05T09:41:56.402Z,32.71
2022-08-05T09:44:41.082Z,32.45
2022-08-05T09:47:10.412Z,32.34
2022-08-05T09:50:00.656Z,32.26
2022-08-05T09:52:30.278Z,32.39
2022-08-05T09:55:57.697Z,31.75
2022-08-05T09:57:59.857Z,32.24
2022-08-05T10:00:27.743Z,31.50
2022-08-05T10:02:58.333Z,31.42
2022-08-05T10:05:26.660Z,31.32
2022-08-05T10:08:35.080Z,31.78
2022-08-05T10:10:44.256Z,31.46
2022-08-05T10:13:12.003Z,31.88
2022-08-05T10:15:41.524Z,31.45
2022-08-05T10:18:22.891Z,30.95
2022-08-05T10:20:50.795Z,31.00
2022-08-05T10:23:34.602Z,30.73
2022-08-05T10:26:07.048Z,30.25
2022-08-05T10:28:33.996Z,30.27
2022-08-05T10:32:49.069Z,29.39
2022-08-05T10:33:54.096Z,29.21
2022-08-05T10:36:23.426Z,29.52
2022-08-05T10:38:55.449Z,28.72
2022-08-05T10:41:45.293Z,28.19
2022-08-05T10:44:16.354Z,28.58
2022-08-05T10:46:44.670Z,28.38
2022-08-05T10:49:16.939Z,27.93
2022-08-05T10:51:53.061Z,28.32
2022-08-05T10:54:56.704Z,28.09
2022-08-05T10:57:32.312Z,27.92
2022-08-05T11:00:18.137Z,27.52
2022-08-05T11:03:25.599Z,28.16
2022-08-05T11:06:05.325Z,27.84
2022-08-05T11:08:37.035Z,27.66
2022-08-05T11:11:23.111Z,27.21
2022-08-05T11:14:00.137Z,27.08
2022-08-05T11:16:47.779Z,27.05
2022-08-05T11:20:10.894Z,27.70
2022-08-05T11:22:36.258Z,25.72
2022-08-05T11:26:04.180Z,25.51
2022-08-05T11:28:11.667Z,26.36
2022-08-05T11:30:58.456Z,26.34
2022-08-05T11:33:43.858Z,27.20
2022-08-05T11:36:40.454Z,26.74
2022-08-05T11:39:09.679Z,27.36
2022-08-05T11:41:57.957Z,27.39
2022-08-05T11:44:52.946Z,27.25
2022-08-05T11:47:15.252Z,27.12
2022-08-05T11:49:58.333Z,27.01
2022-08-05T11:52:29.249Z,26.80
2022-08-05T11:54:56.884Z,26.99
2022-08-05T11:57:28.026Z,27.38
2022-08-05T11:59:57.911Z,26.94
2022-08-05T12:02:30.583Z,27.66
2022-08-05T12:05:00.315Z,27.29
2022-08-05T12:08:02.669Z,27.46
2022-08-05T12:10:14.523Z,27.24
2022-08-05T12:12:58.344Z,27.24
2022-08-05T12:15:35.963Z,27.59
2022-08-05T12:18:10.675Z,27.29
2022-08-05T12:20:39.422Z,27.30
2022-08-05T12:23:08.108Z,27.15
2022-08-05T12:25:48.880Z,27.07
2022-08-05T12:28:30.917Z,27.16
2022-08-05T12:31:02.095Z,27.31
2022-08-05T12:33:36.485Z,26.78
2022-08-05T12:36:07.858Z,27.08
2022-08-05T12:38:40.097Z,27.03
2022-08-05T12:41:12.912Z,26.71
2022-08-05T12:43:50.876Z,26.68
2022-08-05T12:46:28.822Z,26.92
2022-08-05T12:49:01.101Z,27.11
2022-08-05T12:52:12.789Z,27.04
2022-08-05T12:54:29.415Z,26.85
2022-08-05T12:56:57.813Z,27.24
2022-08-05T13:00:08.879Z,26.98
2022-08-05T13:02:21.794Z,27.21
2022-08-05T13:04:54.998Z,27.40
2022-08-05T13:07:54.772Z,27.14
2022-08-05T13:10:14.589Z,27.25
2022-08-05T13:12:57.379Z,27.14
2022-08-05T13:15:42.185Z,26.80
2022-08-05T13:18:20.623Z,26.66
2022-08-05T13:20:49.405Z,26.33
2022-08-05T13:23:18.263Z,26.14
2022-08-05T13:25:52.664Z,26.24
2022-08-05T13:28:25.962Z,26.70
2022-08-05T13:30:53.318Z,26.64
2022-08-05T13:34:23.243Z,26.35
2022-08-05T13:36:10.531Z,26.56
2022-08-05T13:38:38.526Z,26.39
2022-08-05T13:41:10.863Z,26.34
2022-08-05T13:43:44.189Z,26.40
2022-08-05T13:46:12.971Z,26.33
2022-08-05T13:48:58.177Z,26.51
2022-08-05T13:51:28.750Z,26.48
2022-08-05T13:53:57.948Z,26.55
2022-08-05T13:56:25.046Z,26.63
2022-08-05T13:58:53.231Z,26.47
2022-08-05T14:01:25.832Z,26.26
2022-08-05T14:04:21.799Z,26.03
2022-08-05T14:07:12.038Z,26.30
2022-08-05T14:09:46.063Z,26.30
2022-08-05T14:12:17.647Z,26.19
2022-08-05T14:14:58.773Z,26.15
2022-08-05T14:17:26.577Z,26.13
2022-08-05T14:19:59.653Z,26.31
2022-08-05T14:22:30.373Z,26.33
2022-08-05T14:25:01.503Z,26.24
2022-08-05T14:27:28.485Z,25.98
2022-08-05T14:29:55.580Z,26.20
2022-08-05T14:32:26.970Z,26.20
2022-08-05T14:34:56.895Z,26.24
2022-08-05T14:37:47.352Z,26.29
2022-08-05T14:40:14.239Z,26.13
2022-08-05T14:42:44.240Z,26.17
2022-08-05T14:45:11.417Z,26.25
2022-08-05T14:48:03.916Z,26.36
2022-08-05T14:50:25.430Z,26.45
2022-08-05T14:52:56.733Z,26.08
2022-08-05T14:55:39.242Z,26.28
2022-08-05T14:58:11.169Z,26.03
2022-08-05T15:00:39.582Z,26.02
2022-08-05T15:03:26.483Z,26.08
2022-08-05T15:06:07.608Z,26.12
2022-08-05T15:08:59.315Z,26.56
2022-08-05T15:11:51.507Z,26.48
2022-08-05T15:14:33.605Z,26.47
2022-08-05T15:17:01.913Z,26.32
2022-08-05T15:19:31.313Z,26.46
2022-08-05T15:22:00.171Z,26.73
2022-08-05T15:24:27.595Z,26.68
2022-08-05T15:26:56.055Z,26.83
2022-08-05T15:29:29.877Z,26.93
2022-08-05T15:32:03.142Z,26.93
2022-08-05T15:34:32.820Z,26.80
2022-08-05T15:37:06.100Z,26.85
2022-08-05T15:41:04.305Z,26.58
2022-08-05T15:42:54.260Z,26.84
2022-08-05T15:45:07.582Z,26.58
2022-08-05T15:47:37.254Z,26.34
2022-08-05T15:50:06.059Z,26.68
2022-08-05T15:52:53.014Z,26.02
2022-08-05T15:55:24.634Z,25.71
2022-08-05T15:58:08.275Z,26.09
2022-08-05T16:01:04.064Z,25.98
2022-08-05T16:03:22.057Z,26.34
2022-08-05T16:05:52.825Z,26.37
2022-08-05T16:08:22.729Z,25.99
2022-08-05T16:10:50.997Z,26.27
2022-08-05T16:13:23.670Z,26.55
2022-08-05T16:15:59.125Z,26.72
2022-08-05T16:18:29.010Z,26.65
2022-08-05T16:20:56.037Z,26.96
2022-08-05T16:23:23.049Z,26.51
2022-08-05T16:25:53.276Z,26.71
2022-08-05T16:28:24.281Z,27.16
2022-08-05T16:30:52.994Z,27.39
2022-08-05T16:33:20.564Z,27.19
2022-08-05T16:35:52.744Z,27.25
2022-08-05T16:38:25.294Z,27.39
2022-08-05T16:41:00.460Z,27.13
2022-08-05T16:43:29.278Z,27.17
2022-08-05T16:46:06.167Z,27.47
2022-08-05T16:48:35.996Z,27.12
2022-08-05T16:51:09.451Z,27.44
2022-08-05T16:54:06.202Z,27.63
2022-08-05T16:56:25.878Z,27.31
2022-08-05T16:58:52.897Z,27.81
2022-08-05T17:01:20.288Z,27.86
2022-08-05T17:03:47.614Z,27.57
2022-08-05T17:06:16.559Z,27.34
2022-08-05T17:08:52.238Z,27.71
2022-08-05T17:11:23.884Z,27.65
2022-08-05T17:14:00.504Z,27.59
2022-08-05T17:16:37.227Z,27.77
2022-08-05T17:19:07.697Z,28.04
2022-08-05T17:21:37.338Z,27.78
2022-08-05T17:24:20.510Z,27.61
2022-08-05T17:26:52.762Z,28.11
2022-08-05T17:29:22.578Z,27.88
2022-08-05T17:32:00.026Z,28.08
2022-08-05T17:34:29.910Z,28.09
2022-08-05T17:37:02.283Z,28.17
2022-08-05T17:39:34.109Z,28.38
2022-08-05T17:42:17.558Z,28.25
2022-08-05T17:44:50.335Z,28.29
2022-08-05T17:47:21.965Z,28.37
2022-08-05T17:50:03.870Z,28.17
2022-08-05T17:52:32.055Z,27.91
2022-08-05T17:54:59.286Z,28.40
2022-08-05T17:57:26.152Z,28.19
2022-08-05T18:00:03.403Z,28.00
2022-08-05T18:02:32.430Z,28.08
2022-08-05T18:05:02.858Z,28.39
2022-08-05T18:07:41.370Z,28.04
2022-08-05T18:10:10.529Z,28.03
2022-08-05T18:12:38.069Z,28.17
2022-08-05T18:15:05.184Z,27.98
2022-08-05T18:18:00.796Z,28.57
2022-08-05T18:20:29.167Z,28.05
2022-08-05T18:23:00.421Z,27.99
2022-08-05T18:25:35.938Z,28.07
2022-08-05T18:28:05.127Z,28.08
2022-08-05T18:30:33.238Z,27.93
2022-08-05T18:33:00.999Z,27.83
2022-08-05T18:36:00.696Z,28.63
2022-08-05T18:38:16.421Z,27.93
2022-08-05T18:41:57.291Z,28.51
2022-08-05T18:43:38.137Z,28.28
2022-08-05T18:46:09.548Z,28.26
2022-08-05T18:48:41.654Z,28.28
2022-08-05T18:52:02.907Z,28.31
2022-08-05T18:54:14.505Z,28.64
2022-08-05T18:56:41.924Z,28.92
2022-08-05T18:59:42.840Z,28.74
2022-08-05T19:02:11.201Z,28.32
2022-08-05T19:05:01.227Z,28.45
2022-08-05T19:07:45.223Z,28.53
2022-08-05T19:10:12.728Z,28.54
2022-08-05T19:12:40.464Z,29.20
2022-08-05T19:15:10.610Z,28.60
2022-08-05T19:17:59.330Z,29.11
2022-08-05T19:20:36.843Z,29.20
2022-08-05T19:23:07.680Z,28.79
2022-08-05T19:25:42.015Z,28.85
2022-08-05T19:28:10.678Z,28.82
2022-08-05T19:30:37.522Z,28.92
2022-08-05T19:33:05.170Z,29.41
2022-08-05T19:35:55.976Z,28.91
2022-08-05T19:38:26.723Z,29.39
2022-08-05T19:40:53.849Z,28.77
2022-08-05T19:43:31.204Z,29.47
2022-08-05T19:46:28.923Z,29.48
2022-08-05T19:48:54.344Z,29.61
2022-08-05T19:51:59.833Z,29.73
2022-08-05T19:54:15.709Z,29.57
2022-08-05T19:56:55.685Z,29.68
2022-08-05T19:59:55.526Z,29.79
2022-08-05T20:02:09.585Z,29.73
2022-08-05T20:04:37.803Z,29.45
2022-08-05T20:07:13.309Z,29.91
2022-08-05T20:09:54.849Z,29.38
2022-08-05T20:12:24.443Z,29.85
2022-08-05T20:14:52.406Z,29.50
2022-08-05T20:17:23.305Z,29.56
2022-08-05T20:19:56.755Z,29.72
2022-08-05T20:22:26.800Z,29.70
2022-08-05T20:24:55.359Z,29.76
2022-08-05T20:27:26.628Z,30.10
2022-08-05T20:29:57.970Z,29.63
2022-08-05T20:32:26.125Z,30.03
2022-08-05T20:34:53.056Z,30.13
2022-08-05T20:38:04.636Z,29.80
2022-08-05T20:40:07.258Z,30.27
2022-08-05T20:42:34.778Z,29.99
2022-08-05T20:45:02.514Z,29.81
2022-08-05T20:47:31.832Z,30.16
2022-08-05T20:49:59.166Z,30.40
2022-08-05T20:52:26.192Z,29.97
2022-08-05T20:55:55.201Z,30.00
2022-08-05T20:57:43.023Z,30.04
2022-08-05T21:00:41.479Z,30.35
2022-08-05T21:03:06.277Z,30.16
2022-08-05T21:05:38.335Z,30.34
2022-08-05T21:08:19.993Z,30.42
2022-08-05T21:10:48.926Z,30.47
2022-08-05T21:13:26.547Z,30.29
2022-08-05T21:16:03.588Z,30.69
2022-08-05T21:18:30.595Z,30.65
2022-08-05T21:20:57.597Z,30.50
2022-08-05T21:23:25.046Z,30.44
2022-08-05T21:25:51.786Z,30.72
2022-08-05T21:28:23.942Z,30.46
2022-08-05T21:30:57.689Z,30.57
2022-08-05T21:33:24.397Z,30.57
2022-08-05T21:36:04.395Z,30.79
2022-08-05T21:38:31.109Z,30.90
2022-08-05T21:40:57.958Z,30.60
2022-08-05T21:43:25.170Z,30.85
2022-08-05T21:45:57.490Z,30.59
2022-08-05T21:48:27.720Z,30.90
2022-08-05T21:50:55.302Z,30.62
2022-08-05T21:53:27.053Z,30.88
2022-08-05T21:56:04.781Z,30.87
2022-08-05T21:58:33.228Z,30.91
2022-08-05T22:01:00.503Z,31.03
2022-08-05T22:03:52.067Z,30.93
2022-08-05T22:06:15.169Z,31.05
2022-08-05T22:08:42.345Z,31.17
2022-08-05T22:11:11.918Z,31.10
2022-08-05T22:14:32.518Z,30.91
2022-08-05T22:16:41.873Z,31.17
2022-08-05T22:20:02.180Z,31.18
2022-08-05T22:22:03.343Z,31.08
2022-08-05T22:24:51.856Z,31.16
2022-08-05T22:28:05.049Z,31.34
2022-08-05T22:30:24.995Z,31.30
2022-08-05T22:32:59.530Z,31.28
2022-08-05T22:35:26.485Z,31.13
2022-08-05T22:38:05.651Z,31.31
2022-08-05T22:40:36.838Z,31.25
2022-08-05T22:43:04.994Z,31.50
2022-08-05T22:45:31.702Z,31.59
2022-08-05T22:47:59.733Z,31.70
2022-08-05T22:50:27.698Z,31.56
2022-08-05T22:52:54.762Z,31.78
2022-08-05T22:55:22.117Z,31.69
2022-08-05T22:57:52.007Z,31.58
2022-08-05T23:00:21.097Z,31.78
2022-08-05T23:02:48.879Z,31.55
2022-08-05T23:05:15.905Z,31.95
2022-08-05T23:07:48.481Z,31.80
2022-08-05T23:10:20.241Z,31.66
2022-08-05T23:12:51.203Z,31.78
2022-08-05T23:15:18.871Z,31.91
2022-08-05T23:18:01.105Z,31.92
2022-08-05T23:20:30.134Z,32.01
2022-08-05T23:22:58.807Z,31.94
2022-08-05T23:25:53.302Z,32.15
2022-08-05T23:28:12.814Z,32.28
2022-08-05T23:30:43.435Z,32.30
2022-08-05T23:33:16.369Z,32.06
2022-08-05T23:35:50.255Z,32.32
2022-08-05T23:38:17.134Z,32.25
2022-08-05T23:40:50.017Z,32.23
2022-08-05T23:43:25.519Z,32.30
2022-08-05T23:46:04.966Z,32.31
2022-08-05T23:48:59.989Z,32.50
2022-08-05T23:51:54.136Z,32.43
2022-08-05T23:54:30.304Z,32.53
2022-08-05T23:57:04.623Z,32.53
